Terminal Aerodrome Forecast
Issued by NWS

Home | Current Version | Previous Version | Text Only | Print | Product List | Glossary Off
Versions: 1 2 3 4 5 6 7 8 9 10 11 12 13 14 15 16 17

000
FTUS43 KGRB 292300
TAFAUW
TAF
KAUW 292325Z 3000/3024 01008KT P6SM BKN025
      TEMPO 3000/3004 SCT025
     FM300600 02005KT P6SM BKN020
     FM301400 07006KT P6SM BKN028
     FM302200 10004KT P6SM SCT030=

USA.gov is the U.S. government's official web portal to all federal, state and local government web resources and services.